Sunday, January 21, 2018, 4:56 AM GMT
Back to Local

CWAF, Ile Rouge Meteorological Aeronautical Presentation System

Location: , , Canada Lat: 48.083
Local Time: 4:56 AM GMT ( 4:56 GMT) Lon: -69.55
Time Zone: GMT Elev: 16 ft

Show me the last for .
Show Coded

Time T Td Feel RH Dir Speed Gust Alt SLP Vis Weather Sky Remarks
2018-01-21 04:00 19 12 -3 74 280° 33 41 - - 0 Peak wind: 41 mph (36 kts) from 280° at 58 min
2018-01-21 03:00 20 13 0 74 280° 28 38 - - 0 Peak wind: 37 mph (33 kts) from 280° at 51 min
2018-01-21 02:00 22 15 2 75 280° 29 35 - - 0 Peak wind: 42 mph (37 kts) from 280° at 04 min
2018-01-21 01:00 23 16 3 74 280° 35 41 - - 0 Peak wind: 46 mph (40 kts) from 290° at 22 min
2018-01-21 00:00 24 16 4 71 290° 33 40 - - 0 Peak wind: 40 mph (35 kts) from 280° at 59 min
2018-01-20 23:00 26 19 8 73 280° 31 39 - - 0 Peak wind: 48 mph (42 kts) from 290° at 42 min
2018-01-20 22:00 30 23 13 73 280° 38 46 - - 0 Peak wind: 47 mph (41 kts) from 280° at 46 min
2018-01-20 21:00 34 27 21 73 280° 21 29 - - 0 Peak wind: 43 mph (38 kts) from 290° at 01 min
2018-01-20 20:00 35 28 20 75 290° 35 43 - - 0 Peak wind: 42 mph (37 kts) from 280° at 55 min
1-hr Precip Total: 0.01"
2018-01-20 19:00 34 30 21 85 220° 26 - - - 0 Peak wind: 37 mph (33 kts) from 210° at 07 min
1-hr Precip Total: 0.01"
2018-01-20 18:00 34 29 19 83 210° 30 36 - - 0 Peak wind: 35 mph (31 kts) from 210° at 53 min
1-hr Precip Total: 0.02"
2018-01-20 17:00 34 29 19 83 210° 31 37 - - 0 Peak wind: 39 mph (34 kts) from 200° at 44 min
1-hr Precip Total: 0.01"
2018-01-20 16:00 31 29 15 91 210° 32 38 - - 0 Peak wind: 39 mph (34 kts) from 210° at 47 min
2018-01-20 15:00 31 29 17 90 210° 29 - - - 0 Peak wind: 37 mph (33 kts) from 210° at 23 min
2018-01-20 14:00 32 29 18 89 210° 30 - - - 0 Peak wind: 36 mph (32 kts) from 210° at 12 min
2018-01-20 13:00 31 29 17 92 210° 29 - - - 0 Peak wind: 42 mph (37 kts) from 210° at 04 min
2018-01-20 12:00 31 30 15 92 210° 37 43 - - 0 Peak wind: 46 mph (40 kts) from 200° at 04 min
2018-01-20 11:00 31 29 13 94 200° 37 45 - - 0 Peak wind: 44 mph (39 kts) from 210° at 59 min
2018-01-20 10:00 30 28 13 92 210° 35 41 - - 0 Peak wind: 42 mph (37 kts) from 200° at 37 min
2018-01-20 09:00 31 30 14 96 200° 33 40 - - 0 Peak wind: 42 mph (37 kts) from 200° at 38 min
2018-01-20 08:00 30 29 12 97 200° 30 40 - - 0 Peak wind: 40 mph (35 kts) from 190° at 52 min
2018-01-20 07:00 30 29 13 96 200° 29 37 - - 0 Peak wind: 36 mph (32 kts) from 200° at 30 min
2018-01-20 06:00 29 27 13 90 200° 30 37 - - 0 Peak wind: 37 mph (33 kts) from 200° at 30 min
2018-01-20 05:00 29 27 13 91 200° 29 35 - - 0 Peak wind: 36 mph (32 kts) from 200° at 34 min

Support USWX by starting your Amazon purchase here.